Time,TemperatureF,DewpointF,PressureIn,WindDirection,WindDirectionDegrees,WindSpeedMPH,WindSpeedGustMPH,Humidity,HourlyPrecipIn,Conditions,Clouds,dailyrainin,SoftwareType,DateUTC
2013-01-13 00:12:00,11.0,4.0,-100.00,WSW,250,2.0,6.0,73,-99.99,,,-99.99,,2013-01-13 06:12:00,
2013-01-13 00:22:00,11.0,4.0,-100.00,WSW,250,2.0,6.0,73,-99.99,,,-99.99,,2013-01-13 06:22:00,
2013-01-13 00:32:00,11.0,4.0,-100.00,WSW,250,2.0,6.0,73,-99.99,,,-99.99,,2013-01-13 06:32:00,
2013-01-13 00:42:00,11.0,4.0,-100.00,WSW,250,2.0,6.0,73,-99.99,,,-99.99,,2013-01-13 06:42:00,
2013-01-13 01:12:00,10.0,4.0,-100.00,SW,220,1.0,4.0,76,-99.99,,,-99.99,,2013-01-13 07:12:00,
2013-01-13 01:22:00,10.0,4.0,-100.00,SW,220,1.0,4.0,76,-99.99,,,-99.99,,2013-01-13 07:22:00,
2013-01-13 01:32:00,10.0,4.0,-100.00,SW,220,1.0,4.0,76,-99.99,,,-99.99,,2013-01-13 07:32:00,
2013-01-13 01:42:00,10.0,4.0,-100.00,SW,220,1.0,4.0,76,-99.99,,,-99.99,,2013-01-13 07:42:00,
2013-01-13 02:12:00,10.0,5.0,-100.00,NW,310,6.0,11.0,78,-99.99,,,-99.99,,2013-01-13 08:12:00,
2013-01-13 02:22:00,10.0,5.0,-100.00,NW,310,6.0,11.0,78,-99.99,,,-99.99,,2013-01-13 08:22:00,
2013-01-13 02:32:00,10.0,5.0,-100.00,NW,310,6.0,11.0,78,-99.99,,,-99.99,,2013-01-13 08:32:00,
2013-01-13 02:42:00,10.0,5.0,-100.00,NW,310,6.0,11.0,78,-99.99,,,-99.99,,2013-01-13 08:42:00,
2013-01-13 03:12:00,10.0,3.0,-100.00,NNW,335,6.0,10.0,75,-99.99,,,-99.99,,2013-01-13 09:12:00,
2013-01-13 03:22:00,10.0,3.0,-100.00,NNW,335,6.0,10.0,75,-99.99,,,-99.99,,2013-01-13 09:22:00,
2013-01-13 03:32:00,10.0,3.0,-100.00,NNW,335,6.0,10.0,75,-99.99,,,-99.99,,2013-01-13 09:32:00,
2013-01-13 03:42:00,10.0,3.0,-100.00,NNW,335,6.0,10.0,75,-99.99,,,-99.99,,2013-01-13 09:42:00,
2013-01-13 04:12:00,8.0,0.0,-100.00,NW,315,6.0,9.0,71,-99.99,,,-99.99,,2013-01-13 10:12:00,
2013-01-13 04:22:00,8.0,0.0,-100.00,NW,315,6.0,9.0,71,-99.99,,,-99.99,,2013-01-13 10:22:00,
2013-01-13 04:32:00,8.0,0.0,-100.00,NW,315,6.0,9.0,71,-99.99,,,-99.99,,2013-01-13 10:32:00,
2013-01-13 04:42:00,8.0,0.0,-100.00,NW,315,6.0,9.0,71,-99.99,,,-99.99,,2013-01-13 10:42:00,
2013-01-13 05:12:00,4.0,-2.0,-100.00,NW,315,1.0,4.0,73,-99.99,,,-99.99,,2013-01-13 11:12:00,
2013-01-13 05:22:00,4.0,-2.0,-100.00,NW,315,1.0,4.0,73,-99.99,,,-99.99,,2013-01-13 11:22:00,
2013-01-13 05:32:00,4.0,-2.0,-100.00,NW,315,1.0,4.0,73,-99.99,,,-99.99,,2013-01-13 11:32:00,
2013-01-13 05:42:00,4.0,-2.0,-100.00,NW,315,1.0,4.0,73,-99.99,,,-99.99,,2013-01-13 11:42:00,
2013-01-13 06:12:00,3.0,-2.0,-100.00,South,185,1.0,1.0,77,-99.99,,,-99.99,,2013-01-13 12:12:00,
2013-01-13 06:22:00,3.0,-2.0,-100.00,South,185,1.0,1.0,77,-99.99,,,-99.99,,2013-01-13 12:22:00,
2013-01-13 06:32:00,3.0,-2.0,-100.00,South,185,1.0,1.0,77,-99.99,,,-99.99,,2013-01-13 12:32:00,
2013-01-13 06:42:00,3.0,-2.0,-100.00,South,185,1.0,1.0,77,-99.99,,,-99.99,,2013-01-13 12:42:00,
2013-01-13 07:12:00,3.0,-2.0,-100.00,South,180,2.0,5.0,81,-99.99,,,-99.99,,2013-01-13 13:12:00,
2013-01-13 07:22:00,3.0,-2.0,-100.00,South,180,2.0,5.0,81,-99.99,,,-99.99,,2013-01-13 13:22:00,
2013-01-13 07:33:00,3.0,-2.0,-100.00,South,180,2.0,5.0,81,-99.99,,,-99.99,,2013-01-13 13:33:00,
2013-01-13 07:42:00,3.0,-2.0,-100.00,South,180,2.0,5.0,81,-99.99,,,-99.99,,2013-01-13 13:42:00,
2013-01-13 08:12:00,2.0,-2.0,-100.00,NNW,330,0.0,4.0,83,-99.99,,,-99.99,,2013-01-13 14:12:00,
2013-01-13 08:22:00,2.0,-2.0,-100.00,NNW,330,0.0,4.0,83,-99.99,,,-99.99,,2013-01-13 14:22:00,
2013-01-13 08:33:00,2.0,-2.0,-100.00,NNW,330,0.0,4.0,83,-99.99,,,-99.99,,2013-01-13 14:33:00,
2013-01-13 08:43:00,2.0,-2.0,-100.00,NNW,330,0.0,4.0,83,-99.99,,,-99.99,,2013-01-13 14:43:00,
2013-01-13 09:12:00,3.0,-1.0,-100.00,WNW,295,2.0,6.0,84,-99.99,,,-99.99,,2013-01-13 15:12:00,
2013-01-13 09:23:00,3.0,-1.0,-100.00,WNW,295,2.0,6.0,84,-99.99,,,-99.99,,2013-01-13 15:23:00,
2013-01-13 09:33:00,3.0,-1.0,-100.00,WNW,295,2.0,6.0,84,-99.99,,,-99.99,,2013-01-13 15:33:00,
2013-01-13 09:43:00,3.0,-1.0,-100.00,WNW,295,2.0,6.0,84,-99.99,,,-99.99,,2013-01-13 15:43:00,
2013-01-13 10:03:00,6.0,2.0,-100.00,WNW,290,3.0,6.0,82,-99.99,,,-99.99,,2013-01-13 16:03:00,
2013-01-13 10:12:00,6.0,2.0,-100.00,WNW,290,3.0,6.0,82,-99.99,,,-99.99,,2013-01-13 16:12:00,
2013-01-13 10:23:00,6.0,2.0,-100.00,WNW,290,3.0,6.0,82,-99.99,,,-99.99,,2013-01-13 16:23:00,
2013-01-13 10:33:00,6.0,2.0,-100.00,WNW,290,3.0,6.0,82,-99.99,,,-99.99,,2013-01-13 16:33:00,
2013-01-13 10:42:00,6.0,2.0,-100.00,WNW,290,3.0,6.0,82,-99.99,,,-99.99,,2013-01-13 16:42:00,
2013-01-13 11:03:00,7.0,1.0,-100.00,West,265,4.0,8.0,76,-99.99,,,-99.99,,2013-01-13 17:03:00,
2013-01-13 11:12:00,7.0,1.0,-100.00,West,265,4.0,8.0,76,-99.99,,,-99.99,,2013-01-13 17:12:00,
2013-01-13 11:22:00,7.0,1.0,-100.00,West,265,4.0,8.0,76,-99.99,,,-99.99,,2013-01-13 17:22:00,
2013-01-13 11:33:00,7.0,1.0,-100.00,West,265,4.0,8.0,76,-99.99,,,-99.99,,2013-01-13 17:33:00,
2013-01-13 11:42:00,7.0,1.0,-100.00,West,265,4.0,8.0,76,-99.99,,,-99.99,,2013-01-13 17:42:00,
2013-01-13 12:12:00,8.0,1.0,-100.00,NW,320,6.0,9.0,73,-99.99,,,-99.99,,2013-01-13 18:12:00,
2013-01-13 12:23:00,8.0,1.0,-100.00,NW,320,6.0,9.0,73,-99.99,,,-99.99,,2013-01-13 18:23:00,
2013-01-13 12:33:00,8.0,1.0,-100.00,NW,320,6.0,9.0,73,-99.99,,,-99.99,,2013-01-13 18:33:00,
2013-01-13 12:42:00,8.0,1.0,-100.00,NW,320,6.0,9.0,73,-99.99,,,-99.99,,2013-01-13 18:42:00,
2013-01-13 13:12:00,8.0,1.0,-100.00,WNW,285,4.0,8.0,70,-99.99,,,-99.99,,2013-01-13 19:12:00,
2013-01-13 13:22:00,8.0,1.0,-100.00,WNW,285,4.0,8.0,70,-99.99,,,-99.99,,2013-01-13 19:22:00,
2013-01-13 13:33:00,8.0,1.0,-100.00,WNW,285,4.0,8.0,70,-99.99,,,-99.99,,2013-01-13 19:33:00,
2013-01-13 13:43:00,8.0,1.0,-100.00,WNW,285,4.0,8.0,70,-99.99,,,-99.99,,2013-01-13 19:43:00,
2013-01-13 14:12:00,9.0,0.0,-100.00,WSW,250,2.0,7.0,67,-99.99,,,-99.99,,2013-01-13 20:12:00,
2013-01-13 14:22:00,9.0,0.0,-100.00,WSW,250,2.0,7.0,67,-99.99,,,-99.99,,2013-01-13 20:22:00,
2013-01-13 14:33:00,9.0,0.0,-100.00,WSW,250,2.0,7.0,67,-99.99,,,-99.99,,2013-01-13 20:33:00,
2013-01-13 14:43:00,9.0,0.0,-100.00,WSW,250,2.0,7.0,67,-99.99,,,-99.99,,2013-01-13 20:43:00,
2013-01-13 15:12:00,8.0,0.0,-100.00,West,260,3.0,9.0,68,-99.99,,,-99.99,,2013-01-13 21:12:00,
2013-01-13 15:23:00,8.0,0.0,-100.00,West,260,3.0,9.0,68,-99.99,,,-99.99,,2013-01-13 21:23:00,
2013-01-13 15:33:00,8.0,0.0,-100.00,West,260,3.0,9.0,68,-99.99,,,-99.99,,2013-01-13 21:33:00,
2013-01-13 15:43:00,8.0,0.0,-100.00,West,260,3.0,9.0,68,-99.99,,,-99.99,,2013-01-13 21:43:00,
2013-01-13 16:12:00,8.0,0.0,-100.00,West,260,1.0,8.0,72,-99.99,,,-99.99,,2013-01-13 22:12:00,
2013-01-13 16:22:00,8.0,0.0,-100.00,West,260,1.0,8.0,72,-99.99,,,-99.99,,2013-01-13 22:22:00,
2013-01-13 16:33:00,8.0,0.0,-100.00,West,260,1.0,8.0,72,-99.99,,,-99.99,,2013-01-13 22:33:00,
2013-01-13 16:43:00,8.0,0.0,-100.00,West,260,1.0,8.0,72,-99.99,,,-99.99,,2013-01-13 22:43:00,
2013-01-13 17:12:00,7.0,1.0,-100.00,SW,225,2.0,6.0,75,-99.99,,,-99.99,,2013-01-13 23:12:00,
2013-01-13 17:22:00,7.0,1.0,-100.00,SW,225,2.0,6.0,75,-99.99,,,-99.99,,2013-01-13 23:22:00,
2013-01-13 17:33:00,7.0,1.0,-100.00,SW,225,2.0,6.0,75,-99.99,,,-99.99,,2013-01-13 23:33:00,
2013-01-13 17:42:00,7.0,1.0,-100.00,SW,225,2.0,6.0,75,-99.99,,,-99.99,,2013-01-13 23:42:00,
2013-01-13 18:12:00,5.0,0.0,-100.00,SSE,155,1.0,4.0,78,-99.99,,,-99.99,,2013-01-14 00:12:00,
2013-01-13 18:22:00,5.0,0.0,-100.00,SSE,155,1.0,4.0,78,-99.99,,,-99.99,,2013-01-14 00:22:00,
2013-01-13 18:33:00,5.0,0.0,-100.00,SSE,155,1.0,4.0,78,-99.99,,,-99.99,,2013-01-14 00:33:00,
2013-01-13 18:43:00,5.0,0.0,-100.00,SSE,155,1.0,4.0,78,-99.99,,,-99.99,,2013-01-14 00:43:00,
2013-01-13 19:12:00,6.0,2.0,-100.00,WSW,255,2.0,7.0,82,-99.99,,,-99.99,,2013-01-14 01:12:00,
2013-01-13 19:22:00,6.0,2.0,-100.00,WSW,255,2.0,7.0,82,-99.99,,,-99.99,,2013-01-14 01:22:00,
2013-01-13 19:32:00,6.0,2.0,-100.00,WSW,255,2.0,7.0,82,-99.99,,,-99.99,,2013-01-14 01:32:00,
2013-01-13 19:42:00,6.0,2.0,-100.00,WSW,255,2.0,7.0,82,-99.99,,,-99.99,,2013-01-14 01:42:00,
2013-01-13 20:12:00,6.0,2.0,-100.00,West,275,3.0,8.0,82,-99.99,,,-99.99,,2013-01-14 02:12:00,
2013-01-13 20:22:00,6.0,2.0,-100.00,West,275,3.0,8.0,82,-99.99,,,-99.99,,2013-01-14 02:22:00,
2013-01-13 20:32:00,6.0,2.0,-100.00,West,275,3.0,8.0,82,-99.99,,,-99.99,,2013-01-14 02:32:00,
2013-01-13 20:42:00,6.0,2.0,-100.00,West,275,3.0,8.0,82,-99.99,,,-99.99,,2013-01-14 02:42:00,
2013-01-13 21:12:00,6.0,2.0,-100.00,SSW,205,3.0,7.0,83,-99.99,,,-99.99,,2013-01-14 03:12:00,
2013-01-13 21:22:00,6.0,2.0,-100.00,SSW,205,3.0,7.0,83,-99.99,,,-99.99,,2013-01-14 03:22:00,
2013-01-13 21:32:00,6.0,2.0,-100.00,SSW,205,3.0,7.0,83,-99.99,,,-99.99,,2013-01-14 03:32:00,
2013-01-13 21:42:00,6.0,2.0,-100.00,SSW,205,3.0,7.0,83,-99.99,,,-99.99,,2013-01-14 03:42:00,
2013-01-13 22:12:00,4.0,0.0,-100.00,South,180,2.0,4.0,85,-99.99,,,-99.99,,2013-01-14 04:12:00,
2013-01-13 22:22:00,4.0,0.0,-100.00,South,180,2.0,4.0,85,-99.99,,,-99.99,,2013-01-14 04:22:00,
2013-01-13 22:32:00,4.0,0.0,-100.00,South,180,2.0,4.0,85,-99.99,,,-99.99,,2013-01-14 04:32:00,
2013-01-13 22:42:00,4.0,0.0,-100.00,South,180,2.0,4.0,85,-99.99,,,-99.99,,2013-01-14 04:42:00,
2013-01-13 23:12:00,3.0,-1.0,-100.00,SSE,165,1.0,5.0,86,-99.99,,,-99.99,,2013-01-14 05:12:00,
2013-01-13 23:22:00,3.0,-1.0,-100.00,SSE,165,1.0,5.0,86,-99.99,,,-99.99,,2013-01-14 05:22:00,
2013-01-13 23:32:00,3.0,-1.0,-100.00,SSE,165,1.0,5.0,86,-99.99,,,-99.99,,2013-01-14 05:32:00,
2013-01-13 23:42:00,3.0,-1.0,-100.00,SSE,165,1.0,5.0,86,-99.99,,,-99.99,,2013-01-14 05:42:00,